createdAt,value
2023-04-26T00:00:09.957Z,1787.00
2023-04-26T00:01:09.938Z,1774.00
2023-04-26T00:02:09.979Z,1798.00
2023-04-26T00:03:10.265Z,1770.00
2023-04-26T00:04:10.271Z,1770.00
2023-04-26T00:05:10.464Z,1758.00
2023-04-26T00:06:10.140Z,1755.00
2023-04-26T00:07:10.092Z,1753.00
2023-04-26T00:08:10.094Z,1759.00
2023-04-26T00:09:10.074Z,1776.00
2023-04-26T00:10:10.111Z,1765.00
2023-04-26T00:11:10.112Z,1755.00
2023-04-26T00:12:10.172Z,1759.00
2023-04-26T00:13:10.276Z,1745.00
2023-04-26T00:14:10.275Z,1762.00
2023-04-26T00:15:10.321Z,1751.00
2023-04-26T00:16:10.381Z,1739.00
2023-04-26T00:17:10.416Z,1715.00
2023-04-26T00:18:10.365Z,1725.00
2023-04-26T00:19:10.315Z,1744.00
2023-04-26T00:20:10.449Z,1754.00
2023-04-26T00:21:10.445Z,1738.00
2023-04-26T00:22:10.543Z,1739.00
2023-04-26T00:23:10.652Z,1738.00
2023-04-26T00:24:10.726Z,1747.00
2023-04-26T00:25:10.830Z,1746.00
2023-04-26T00:26:10.879Z,1749.00
2023-04-26T00:27:11.008Z,1746.00
2023-04-26T00:28:11.039Z,1745.00
2023-04-26T00:29:11.115Z,1725.00
2023-04-26T00:30:11.207Z,1734.00
2023-04-26T00:31:11.314Z,1734.00
2023-04-26T00:32:11.409Z,1716.00
2023-04-26T00:33:11.372Z,1740.00
2023-04-26T00:34:11.402Z,1723.00
2023-04-26T00:35:11.450Z,1722.00
2023-04-26T00:36:11.436Z,1720.00
2023-04-26T00:37:11.428Z,1705.00
2023-04-26T00:38:11.465Z,1700.00
2023-04-26T00:39:11.452Z,1725.00
2023-04-26T00:40:11.566Z,1707.00
2023-04-26T00:41:11.555Z,1708.00
2023-04-26T00:42:11.614Z,1700.00
2023-04-26T00:43:11.554Z,1697.00
2023-04-26T00:44:11.585Z,1691.00
2023-04-26T00:45:11.594Z,1681.00
2023-04-26T00:46:11.637Z,1666.00
2023-04-26T00:47:11.711Z,1648.00
2023-04-26T00:48:11.764Z,1637.00
2023-04-26T00:49:11.797Z,1631.00
2023-04-26T00:50:11.870Z,1634.00
2023-04-26T00:51:11.894Z,1628.00
2023-04-26T00:52:11.995Z,1585.00
2023-04-26T00:53:12.057Z,1602.00
2023-04-26T00:54:12.097Z,1604.00
2023-04-26T00:55:12.150Z,1616.00
2023-04-26T00:56:12.236Z,1595.00
2023-04-26T00:57:12.264Z,1607.00
2023-04-26T00:58:12.302Z,1602.00
2023-04-26T00:59:12.361Z,1610.00
2023-04-26T01:00:12.387Z,1619.00
2023-04-26T01:01:12.466Z,1614.00
2023-04-26T01:02:12.570Z,1605.00
2023-04-26T01:03:12.606Z,1608.00
2023-04-26T01:04:12.606Z,1601.00
2023-04-26T01:05:12.576Z,1622.00
2023-04-26T01:06:12.605Z,1617.00
2023-04-26T01:07:12.662Z,1614.00
2023-04-26T01:08:12.724Z,1636.00
2023-04-26T01:09:12.709Z,1607.00
2023-04-26T01:10:12.744Z,1613.00
2023-04-26T01:11:12.786Z,1625.00
2023-04-26T01:12:12.876Z,1629.00
2023-04-26T01:13:12.882Z,1626.00
2023-04-26T01:14:12.918Z,1621.00
2023-04-26T01:15:12.947Z,1639.00
2023-04-26T01:16:12.939Z,1618.00
2023-04-26T01:17:13.114Z,1614.00
2023-04-26T01:18:13.017Z,1615.00
2023-04-26T01:19:13.071Z,1632.00
2023-04-26T01:20:13.081Z,1627.00
2023-04-26T01:21:13.142Z,1633.00
2023-04-26T01:22:13.188Z,1629.00
2023-04-26T01:23:13.201Z,1634.00
2023-04-26T01:24:13.212Z,1634.00
2023-04-26T01:25:13.281Z,1638.00
2023-04-26T01:26:13.280Z,1626.00
2023-04-26T01:27:13.357Z,1633.00
2023-04-26T01:28:13.362Z,1615.00
2023-04-26T01:29:13.378Z,1634.00
2023-04-26T01:30:13.442Z,1627.00
2023-04-26T01:31:13.632Z,1615.00
2023-04-26T01:32:13.489Z,1624.00
2023-04-26T01:33:13.611Z,1620.00
2023-04-26T01:34:13.604Z,1631.00
2023-04-26T01:35:13.593Z,1613.00
2023-04-26T01:36:13.619Z,1636.00
2023-04-26T01:37:13.679Z,1644.00
2023-04-26T01:38:13.675Z,1631.00
2023-04-26T01:39:13.714Z,1619.00
2023-04-26T01:40:13.736Z,1627.00
2023-04-26T01:41:13.786Z,1631.00
2023-04-26T01:42:13.786Z,1625.00
2023-04-26T01:43:13.854Z,1617.00
2023-04-26T01:44:13.859Z,1622.00
2023-04-26T01:45:13.889Z,1624.00
2023-04-26T01:46:13.961Z,1610.00
2023-04-26T01:47:13.937Z,1603.00
2023-04-26T01:48:13.995Z,1613.00
2023-04-26T01:49:13.997Z,1610.00
2023-04-26T01:50:14.036Z,1614.00
2023-04-26T01:51:14.042Z,1610.00
2023-04-26T01:52:14.040Z,1632.00
2023-04-26T01:53:14.058Z,1614.00
2023-04-26T01:54:14.078Z,1612.00
2023-04-26T01:55:14.097Z,1601.00
2023-04-26T01:56:14.198Z,1605.00
2023-04-26T01:57:14.149Z,1622.00
2023-04-26T01:58:14.158Z,1610.00
2023-04-26T01:59:14.163Z,1586.00
2023-04-26T02:00:14.195Z,1607.00
2023-04-26T02:01:14.219Z,1611.00
2023-04-26T02:02:14.261Z,1597.00
2023-04-26T02:03:14.378Z,1605.00
2023-04-26T02:04:14.259Z,1599.00
2023-04-26T02:05:14.327Z,1607.00
2023-04-26T02:06:14.248Z,1606.00
2023-04-26T02:07:14.275Z,1589.00
2023-04-26T02:08:14.294Z,1603.00
2023-04-26T02:09:14.290Z,1590.00
2023-04-26T02:10:14.386Z,1582.00
2023-04-26T02:11:14.300Z,1578.00
2023-04-26T02:12:14.313Z,1602.00
2023-04-26T02:13:14.372Z,1596.00
2023-04-26T02:14:14.349Z,1582.00
2023-04-26T02:15:14.325Z,1574.00
2023-04-26T02:16:14.387Z,1595.00
2023-04-26T02:17:14.343Z,1582.00
2023-04-26T02:18:14.465Z,1581.00
2023-04-26T02:19:14.362Z,1590.00
2023-04-26T02:20:14.363Z,1590.00
2023-04-26T02:21:14.428Z,1572.00
2023-04-26T02:22:14.377Z,1588.00
2023-04-26T02:23:14.395Z,1582.00
2023-04-26T02:24:14.373Z,1564.00
2023-04-26T02:25:14.424Z,1569.00
2023-04-26T02:26:14.445Z,1570.00
2023-04-26T02:27:14.411Z,1573.00
2023-04-26T02:28:14.456Z,1573.00
2023-04-26T02:29:14.425Z,1584.00
2023-04-26T02:30:14.445Z,1573.00
2023-04-26T02:31:14.569Z,1556.00
2023-04-26T02:32:14.531Z,1558.00
2023-04-26T02:33:14.438Z,1554.00
2023-04-26T02:34:14.459Z,1540.00
2023-04-26T02:35:14.443Z,1556.00
2023-04-26T02:36:14.464Z,1581.00
2023-04-26T02:37:14.435Z,1562.00
2023-04-26T02:38:14.482Z,1551.00
2023-04-26T02:39:14.446Z,1549.00
2023-04-26T02:40:14.449Z,1554.00
2023-04-26T02:41:14.466Z,1549.00
2023-04-26T02:42:14.471Z,1545.00
2023-04-26T02:43:14.478Z,1569.00
2023-04-26T02:44:14.486Z,1542.00
2023-04-26T02:45:14.443Z,1537.00
2023-04-26T02:46:17.158Z,1544.00
2023-04-26T02:47:14.423Z,1548.00
2023-04-26T02:48:14.436Z,1552.00
2023-04-26T02:49:14.404Z,1538.00
2023-04-26T02:50:14.424Z,1554.00
2023-04-26T02:51:14.416Z,1543.00
2023-04-26T02:52:14.437Z,1543.00
2023-04-26T02:53:14.420Z,1532.00
2023-04-26T02:54:14.383Z,1526.00
2023-04-26T02:55:14.408Z,1527.00
2023-04-26T02:56:14.417Z,1544.00
2023-04-26T02:57:14.359Z,1533.00
2023-04-26T02:58:14.374Z,1546.00
2023-04-26T02:59:14.372Z,1524.00
2023-04-26T03:00:14.483Z,1536.00
2023-04-26T03:01:14.354Z,1548.00
2023-04-26T03:02:14.450Z,1524.00
2023-04-26T03:03:14.452Z,1517.00
2023-04-26T03:04:14.543Z,1538.00
2023-04-26T03:05:14.378Z,1515.00
2023-04-26T03:06:14.335Z,1530.00
2023-04-26T03:07:14.281Z,1522.00
2023-04-26T03:08:14.285Z,1532.00
2023-04-26T03:09:14.330Z,1518.00
2023-04-26T03:10:14.309Z,1512.00
2023-04-26T03:11:14.320Z,1522.00
2023-04-26T03:12:14.299Z,1512.00
2023-04-26T03:13:14.261Z,1512.00
2023-04-26T03:14:14.263Z,1515.00
2023-04-26T03:15:14.292Z,1518.00
2023-04-26T03:16:14.325Z,1521.00
2023-04-26T03:17:14.299Z,1492.00
2023-04-26T03:18:14.241Z,1502.00
2023-04-26T03:19:14.225Z,1513.00
2023-04-26T03:20:14.253Z,1512.00
2023-04-26T03:21:14.222Z,1505.00
2023-04-26T03:22:14.218Z,1507.00
2023-04-26T03:23:14.186Z,1504.00
2023-04-26T03:24:14.182Z,1485.00
2023-04-26T03:25:14.191Z,1489.00
2023-04-26T03:26:14.211Z,1501.00
2023-04-26T03:27:14.220Z,1475.00
2023-04-26T03:28:14.211Z,1494.00
2023-04-26T03:29:14.178Z,1489.00
2023-04-26T03:30:14.188Z,1485.00
2023-04-26T03:31:14.160Z,1494.00
2023-04-26T03:32:14.285Z,1492.00
2023-04-26T03:33:14.254Z,1492.00
2023-04-26T03:34:14.146Z,1475.00
2023-04-26T03:35:14.147Z,1493.00
2023-04-26T03:36:14.103Z,1478.00
2023-04-26T03:37:14.132Z,1484.00
2023-04-26T03:38:14.094Z,1481.00
2023-04-26T03:39:14.143Z,1483.00
2023-04-26T03:40:14.085Z,1488.00
2023-04-26T03:41:14.091Z,1487.00
2023-04-26T03:42:14.097Z,1486.00
2023-04-26T03:43:14.153Z,1465.00
2023-04-26T03:44:14.075Z,1467.00
2023-04-26T03:45:14.058Z,1467.00
2023-04-26T03:46:14.092Z,1476.00
2023-04-26T03:47:14.052Z,1467.00
2023-04-26T03:48:14.042Z,1459.00
2023-04-26T03:49:14.052Z,1462.00
2023-04-26T03:50:14.031Z,1461.00
2023-04-26T03:51:14.018Z,1450.00
2023-04-26T03:52:14.008Z,1479.00
2023-04-26T03:53:14.016Z,1474.00
2023-04-26T03:54:13.998Z,1451.00
2023-04-26T03:55:14.024Z,1465.00
2023-04-26T03:56:13.990Z,1477.00
2023-04-26T03:57:13.981Z,1456.00
2023-04-26T03:58:13.997Z,1457.00
2023-04-26T03:59:13.996Z,1455.00
2023-04-26T04:00:13.998Z,1450.00
2023-04-26T04:01:13.971Z,1457.00
2023-04-26T04:02:14.022Z,1449.00
2023-04-26T04:03:14.166Z,1450.00
2023-04-26T04:04:14.292Z,1449.00
2023-04-26T04:05:14.116Z,1472.00
2023-04-26T04:06:14.037Z,1442.00
2023-04-26T04:07:13.933Z,1460.00
2023-04-26T04:08:13.922Z,1432.00
2023-04-26T04:09:13.944Z,1435.00
2023-04-26T04:10:13.934Z,1434.00
2023-04-26T04:11:13.963Z,1442.00
2023-04-26T04:12:13.930Z,1434.00
2023-04-26T04:13:13.890Z,1437.00
2023-04-26T04:14:13.927Z,1446.00
2023-04-26T04:15:13.969Z,1436.00
2023-04-26T04:16:14.088Z,1435.00
2023-04-26T04:17:14.080Z,1434.00
2023-04-26T04:18:14.145Z,1437.00
2023-04-26T04:19:14.120Z,1432.00
2023-04-26T04:20:14.211Z,1427.00
2023-04-26T04:21:14.247Z,1415.00
2023-04-26T04:22:14.315Z,1435.00
2023-04-26T04:23:14.364Z,1416.00
2023-04-26T04:24:14.412Z,1443.00
2023-04-26T04:25:14.465Z,1435.00
2023-04-26T04:26:14.546Z,1410.00
2023-04-26T04:27:14.600Z,1427.00
2023-04-26T04:28:14.663Z,1425.00
2023-04-26T04:29:14.663Z,1405.00
2023-04-26T04:30:14.772Z,1423.00
2023-04-26T04:31:14.822Z,1411.00
2023-04-26T04:32:14.879Z,1400.00
2023-04-26T04:33:14.876Z,1406.00
2023-04-26T04:34:14.929Z,1410.00
2023-04-26T04:35:14.985Z,1413.00
2023-04-26T04:36:15.044Z,1395.00
2023-04-26T04:37:15.082Z,1396.00
2023-04-26T04:38:15.171Z,1392.00
2023-04-26T04:39:15.189Z,1405.00
2023-04-26T04:40:15.220Z,1398.00
2023-04-26T04:41:15.328Z,1413.00
2023-04-26T04:42:15.352Z,1397.00
2023-04-26T04:43:15.429Z,1401.00
2023-04-26T04:44:15.452Z,1398.00
2023-04-26T04:45:15.542Z,1405.00
2023-04-26T04:46:15.584Z,1390.00
2023-04-26T04:47:15.634Z,1396.00
2023-04-26T04:48:15.696Z,1387.00
2023-04-26T04:49:15.742Z,1389.00
2023-04-26T04:50:15.790Z,1402.00
2023-04-26T04:51:15.834Z,1400.00
2023-04-26T04:52:18.614Z,1401.00
2023-04-26T04:53:15.868Z,1398.00
2023-04-26T04:54:15.932Z,1395.00
2023-04-26T04:55:15.869Z,1383.00
2023-04-26T04:56:15.832Z,1405.00
2023-04-26T04:57:15.834Z,1403.00
2023-04-26T04:58:15.857Z,1400.00
2023-04-26T04:59:15.827Z,1362.00
2023-04-26T05:00:15.905Z,1363.00
2023-04-26T05:01:15.813Z,1375.00
2023-04-26T05:02:15.928Z,1379.00
2023-04-26T05:03:15.928Z,1364.00
2023-04-26T05:04:15.926Z,1370.00
2023-04-26T05:05:15.909Z,1369.00
2023-04-26T05:06:15.807Z,1370.00
2023-04-26T05:07:15.818Z,1365.00
2023-04-26T05:08:15.779Z,1365.00
2023-04-26T05:09:15.799Z,1359.00
2023-04-26T05:10:15.760Z,1359.00
2023-04-26T05:11:15.731Z,1373.00
2023-04-26T05:12:15.769Z,1361.00
2023-04-26T05:13:15.786Z,1381.00
2023-04-26T05:14:15.745Z,1355.00
2023-04-26T05:15:15.739Z,1376.00
2023-04-26T05:16:15.768Z,1365.00
2023-04-26T05:17:15.769Z,1381.00
2023-04-26T05:18:15.719Z,1365.00
2023-04-26T05:19:15.730Z,1370.00
2023-04-26T05:20:15.737Z,1345.00
2023-04-26T05:21:15.708Z,1366.00
2023-04-26T05:22:15.743Z,1372.00
2023-04-26T05:23:15.697Z,1359.00
2023-04-26T05:24:15.699Z,1353.00
2023-04-26T05:25:15.811Z,1359.00
2023-04-26T05:26:15.721Z,1366.00
2023-04-26T05:27:15.674Z,1347.00
2023-04-26T05:28:15.684Z,1364.00
2023-04-26T05:29:15.685Z,1358.00
2023-04-26T05:30:15.699Z,1364.00
2023-04-26T05:31:15.696Z,1370.00
2023-04-26T05:32:15.918Z,1351.00
2023-04-26T05:33:15.725Z,1351.00
2023-04-26T05:34:15.623Z,1373.00
2023-04-26T05:35:15.657Z,1355.00
2023-04-26T05:36:15.645Z,1202.00
2023-04-26T05:37:15.648Z,1050.00
2023-04-26T05:38:15.584Z,938.00
2023-04-26T05:39:15.585Z,879.00
2023-04-26T05:40:15.588Z,835.00
2023-04-26T05:41:15.582Z,879.00
2023-04-26T05:42:17.611Z,792.00
2023-04-26T05:43:15.589Z,702.00
2023-04-26T05:44:15.587Z,735.00
2023-04-26T05:45:15.585Z,733.00
2023-04-26T05:46:22.757Z,760.00
2023-04-26T05:47:15.912Z,753.00
2023-04-26T05:48:15.618Z,740.00
2023-04-26T05:49:15.616Z,659.00
2023-04-26T05:50:15.594Z,650.00
2023-04-26T05:51:15.615Z,621.00
2023-04-26T05:52:15.585Z,681.00
2023-04-26T05:53:15.573Z,716.00
2023-04-26T05:54:15.558Z,696.00
2023-04-26T05:55:15.559Z,662.00
2023-04-26T05:56:15.567Z,695.00
2023-04-26T05:57:15.615Z,838.00
2023-04-26T05:58:15.541Z,956.00
2023-04-26T05:59:15.554Z,985.00
2023-04-26T06:00:15.580Z,1009.00
2023-04-26T06:01:15.525Z,1030.00
2023-04-26T06:02:15.601Z,1058.00
2023-04-26T06:03:15.712Z,1064.00
2023-04-26T06:04:15.734Z,1075.00
2023-04-26T06:05:15.592Z,958.00
2023-04-26T06:06:15.507Z,853.00
2023-04-26T06:07:15.492Z,858.00
2023-04-26T06:08:15.495Z,918.00
2023-04-26T06:09:15.425Z,952.00
2023-04-26T06:10:15.463Z,1023.00
2023-04-26T06:11:15.469Z,1021.00
2023-04-26T06:12:15.478Z,1072.00
2023-04-26T06:13:15.433Z,1094.00
2023-04-26T06:14:29.432Z,1120.00
2023-04-26T06:15:16.418Z,1120.00
2023-04-26T06:16:15.422Z,1122.00
2023-04-26T06:17:15.587Z,1115.00
2023-04-26T06:18:15.563Z,1125.00
2023-04-26T06:19:15.439Z,1145.00
2023-04-26T06:20:15.387Z,1159.00
2023-04-26T06:21:15.382Z,1174.00
2023-04-26T06:22:15.411Z,1162.00
2023-04-26T06:23:15.364Z,1137.00
2023-04-26T06:24:15.339Z,1151.00
2023-04-26T06:25:15.358Z,1159.00
2023-04-26T06:26:15.318Z,1143.00
2023-04-26T06:27:15.392Z,1167.00
2023-04-26T06:28:15.323Z,1190.00
2023-04-26T06:29:15.279Z,1199.00
2023-04-26T06:30:15.328Z,1214.00
2023-04-26T06:31:15.345Z,1213.00
2023-04-26T06:32:15.303Z,1233.00
2023-04-26T06:33:15.270Z,1241.00
2023-04-26T06:34:15.264Z,1246.00
2023-04-26T06:35:15.301Z,1251.00
2023-04-26T06:36:15.299Z,1253.00
2023-04-26T06:37:15.435Z,1232.00
2023-04-26T06:38:15.248Z,1245.00
2023-04-26T06:39:15.321Z,1300.00
2023-04-26T06:40:15.278Z,1294.00
2023-04-26T06:41:15.256Z,1339.00
2023-04-26T06:42:15.948Z,1311.00
2023-04-26T06:43:15.241Z,1300.00
2023-04-26T06:44:15.253Z,1304.00
2023-04-26T06:45:15.265Z,1331.00
2023-04-26T06:46:15.262Z,1358.00
2023-04-26T06:47:15.190Z,1341.00
2023-04-26T06:48:15.258Z,1367.00
2023-04-26T06:49:15.191Z,1366.00
2023-04-26T06:50:15.221Z,1382.00
2023-04-26T06:51:15.186Z,1390.00
2023-04-26T06:52:15.446Z,1395.00
2023-04-26T06:53:15.235Z,1412.00
2023-04-26T06:54:15.295Z,1388.00
2023-04-26T06:55:15.277Z,1372.00
2023-04-26T06:56:15.343Z,1412.00
2023-04-26T06:57:15.549Z,1373.00
2023-04-26T06:58:15.379Z,1402.00
2023-04-26T06:59:15.455Z,1388.00
2023-04-26T07:00:15.439Z,1330.00
2023-04-26T07:01:15.459Z,1298.00
2023-04-26T07:02:15.858Z,1343.00
2023-04-26T07:03:15.522Z,1335.00
2023-04-26T07:04:15.608Z,1347.00
2023-04-26T07:05:15.695Z,1359.00
2023-04-26T07:06:15.575Z,1332.00
2023-04-26T07:07:15.647Z,1338.00
2023-04-26T07:08:15.694Z,1343.00
2023-04-26T07:09:15.721Z,1330.00
2023-04-26T07:10:15.792Z,1298.00
2023-04-26T07:11:15.798Z,1205.00
2023-04-26T07:12:15.845Z,1179.00
2023-04-26T07:13:15.879Z,1175.00
2023-04-26T07:14:15.905Z,1198.00
2023-04-26T07:15:15.961Z,1212.00
2023-04-26T07:16:16.016Z,1222.00
2023-04-26T07:17:16.043Z,1039.00
2023-04-26T07:18:16.160Z,888.00
2023-04-26T07:19:16.101Z,984.00
2023-04-26T07:20:16.169Z,1018.00
2023-04-26T07:21:16.239Z,1091.00
2023-04-26T07:22:16.340Z,1114.00
2023-04-26T07:23:16.371Z,1140.00
2023-04-26T07:24:16.424Z,1169.00
2023-04-26T07:25:16.509Z,1138.00
2023-04-26T07:26:16.528Z,1134.00
2023-04-26T07:27:17.441Z,1155.00
2023-04-26T07:28:16.645Z,1185.00
2023-04-26T07:29:16.658Z,1181.00
2023-04-26T07:30:16.731Z,1194.00
2023-04-26T07:31:16.832Z,1106.00
2023-04-26T07:32:16.954Z,879.00
2023-04-26T07:33:17.074Z,778.00
2023-04-26T07:34:16.928Z,629.00
2023-04-26T07:35:16.935Z,552.00
2023-04-26T07:36:16.962Z,530.00
2023-04-26T07:37:16.962Z,473.00
2023-04-26T07:38:16.998Z,400.00
2023-04-26T07:39:17.078Z,400.00
2023-04-26T07:40:17.161Z,472.00
2023-04-26T07:41:17.182Z,513.00
2023-04-26T07:42:17.156Z,604.00
2023-04-26T07:43:17.454Z,659.00
2023-04-26T07:44:17.289Z,810.00
2023-04-26T07:45:17.317Z,936.00
2023-04-26T07:46:17.469Z,1024.00
2023-04-26T07:47:17.387Z,1031.00
2023-04-26T07:48:17.500Z,1041.00
2023-04-26T07:49:17.462Z,1056.00
2023-04-26T07:50:17.478Z,1070.00
2023-04-26T07:51:17.466Z,1117.00
2023-04-26T07:52:17.445Z,1118.00
2023-04-26T07:53:17.482Z,1168.00
2023-04-26T07:54:17.524Z,1197.00
2023-04-26T07:55:17.889Z,1219.00
2023-04-26T07:56:17.667Z,1250.00
2023-04-26T07:57:17.747Z,1291.00
2023-04-26T07:58:18.480Z,1346.00
2023-04-26T07:59:17.829Z,1393.00
2023-04-26T08:00:17.879Z,1438.00
2023-04-26T08:01:17.904Z,1464.00
2023-04-26T08:02:18.034Z,1466.00
2023-04-26T08:03:18.168Z,1477.00
2023-04-26T08:04:18.104Z,1491.00
2023-04-26T08:05:18.213Z,1488.00
2023-04-26T08:06:18.171Z,1502.00
2023-04-26T08:07:18.146Z,1517.00
2023-04-26T08:08:18.944Z,1537.00
2023-04-26T08:09:18.204Z,1580.00
2023-04-26T08:10:18.270Z,1597.00
2023-04-26T08:11:18.264Z,1630.00
2023-04-26T08:12:18.282Z,1630.00
2023-04-26T08:13:18.285Z,1655.00
2023-04-26T08:14:18.295Z,1634.00
2023-04-26T08:15:18.295Z,1677.00
2023-04-26T08:16:18.381Z,1693.00
2023-04-26T08:17:18.319Z,1680.00
2023-04-26T08:18:18.335Z,1717.00
2023-04-26T08:19:18.373Z,1755.00
2023-04-26T08:20:18.425Z,1765.00
2023-04-26T08:21:18.394Z,1787.00
2023-04-26T08:22:18.491Z,1793.00
2023-04-26T08:23:18.375Z,1786.00
2023-04-26T08:24:18.766Z,1814.00
2023-04-26T08:25:18.366Z,1817.00
2023-04-26T08:26:18.367Z,1841.00
2023-04-26T08:27:18.366Z,1839.00
2023-04-26T08:28:18.381Z,1855.00
2023-04-26T08:29:18.364Z,1845.00
2023-04-26T08:30:18.383Z,1796.00
2023-04-26T08:31:18.507Z,1694.00
2023-04-26T08:32:18.410Z,878.00
2023-04-26T08:33:18.655Z,616.00
2023-04-26T08:34:18.546Z,660.00
2023-04-26T08:35:18.560Z,823.00
2023-04-26T08:36:19.530Z,893.00
2023-04-26T08:37:18.638Z,879.00
2023-04-26T08:38:18.994Z,1006.00
2023-04-26T08:39:18.728Z,862.00
2023-04-26T08:40:18.763Z,1079.00
2023-04-26T08:41:18.809Z,1132.00
2023-04-26T08:42:18.956Z,1234.00
2023-04-26T08:43:18.959Z,1211.00
2023-04-26T08:44:19.015Z,1327.00
2023-04-26T08:45:19.076Z,1145.00
2023-04-26T08:46:19.203Z,1269.00
2023-04-26T08:47:19.230Z,1431.00
2023-04-26T08:48:19.552Z,1383.00
2023-04-26T08:49:19.310Z,1443.00
2023-04-26T08:50:19.358Z,1527.00
2023-04-26T08:51:19.368Z,1418.00
2023-04-26T08:52:19.392Z,1437.00
2023-04-26T08:53:19.471Z,1468.00
2023-04-26T08:54:19.497Z,1475.00
2023-04-26T08:55:19.533Z,1248.00
2023-04-26T08:56:19.556Z,1120.00
2023-04-26T08:57:19.626Z,882.00
2023-04-26T08:58:19.995Z,738.00
2023-04-26T08:59:19.742Z,564.00
2023-04-26T09:00:19.857Z,513.00
2023-04-26T09:01:19.821Z,518.00
2023-04-26T09:03:19.995Z,559.00
2023-04-26T09:04:20.003Z,644.00
2023-04-26T09:05:19.857Z,897.00
2023-04-26T09:06:19.898Z,997.00
2023-04-26T09:07:19.962Z,1015.00
2023-04-26T09:08:20.016Z,1064.00
2023-04-26T09:09:20.061Z,1033.00
2023-04-26T09:10:20.319Z,998.00
2023-04-26T09:11:20.155Z,943.00
2023-04-26T09:12:20.200Z,969.00
2023-04-26T09:13:20.234Z,991.00
2023-04-26T09:14:20.272Z,991.00
2023-04-26T09:15:20.325Z,1027.00
2023-04-26T09:16:20.444Z,1013.00
2023-04-26T09:17:21.079Z,1072.00
2023-04-26T09:18:20.514Z,1013.00
2023-04-26T09:19:20.433Z,1061.00
2023-04-26T09:20:20.547Z,1045.00
2023-04-26T09:21:20.465Z,1090.00
2023-04-26T09:22:20.536Z,1053.00
2023-04-26T09:23:20.992Z,1073.00
2023-04-26T09:24:20.528Z,1069.00
2023-04-26T09:25:20.858Z,1152.00
2023-04-26T09:26:20.631Z,1150.00
2023-04-26T09:27:20.534Z,1165.00
2023-04-26T09:28:20.555Z,1156.00
2023-04-26T09:29:21.046Z,1111.00
2023-04-26T09:30:20.611Z,1075.00
2023-04-26T09:31:20.683Z,1081.00
2023-04-26T09:32:20.650Z,1019.00
2023-04-26T09:33:20.752Z,1036.00
2023-04-26T09:34:20.659Z,1007.00
2023-04-26T09:35:20.669Z,980.00
2023-04-26T09:36:20.647Z,986.00
2023-04-26T09:37:20.696Z,950.00
2023-04-26T09:38:20.686Z,983.00
2023-04-26T09:39:20.997Z,654.00
2023-04-26T09:40:20.689Z,707.00
2023-04-26T09:41:20.759Z,669.00
2023-04-26T09:42:20.848Z,705.00
2023-04-26T09:43:20.756Z,681.00
2023-04-26T09:44:20.776Z,821.00
2023-04-26T09:45:20.842Z,792.00
2023-04-26T09:46:20.812Z,747.00
2023-04-26T09:47:20.839Z,779.00
2023-04-26T09:48:20.853Z,800.00
2023-04-26T09:49:20.874Z,879.00
2023-04-26T09:50:21.529Z,919.00
2023-04-26T09:51:20.876Z,845.00
2023-04-26T09:52:20.934Z,715.00
2023-04-26T09:53:20.926Z,761.00
2023-04-26T09:54:21.023Z,607.00
2023-04-26T09:55:34.239Z,586.00
2023-04-26T09:56:22.076Z,529.00
2023-04-26T09:57:20.975Z,536.00
2023-04-26T09:58:21.048Z,563.00
2023-04-26T09:59:21.081Z,517.00
2023-04-26T10:00:20.944Z,575.00
2023-04-26T10:01:20.978Z,513.00
2023-04-26T10:02:20.995Z,502.00
2023-04-26T10:03:21.209Z,484.00
2023-04-26T10:04:21.006Z,530.00
2023-04-26T10:05:20.904Z,564.00
2023-04-26T10:06:20.956Z,631.00
2023-04-26T10:07:20.955Z,684.00
2023-04-26T10:08:20.898Z,588.00
2023-04-26T10:09:21.020Z,608.00
2023-04-26T10:10:21.029Z,642.00
2023-04-26T10:11:21.051Z,500.00
2023-04-26T10:12:21.081Z,576.00
2023-04-26T10:13:21.142Z,573.00
2023-04-26T10:14:21.568Z,595.00
2023-04-26T10:15:21.280Z,595.00
2023-04-26T10:16:21.402Z,551.00
2023-04-26T10:17:21.383Z,450.00
2023-04-26T10:18:21.409Z,428.00
2023-04-26T10:19:21.430Z,428.00
2023-04-26T10:20:21.445Z,426.00
2023-04-26T10:21:21.421Z,463.00
2023-04-26T10:22:21.473Z,557.00
2023-04-26T10:23:21.439Z,499.00
2023-04-26T10:24:21.523Z,611.00
2023-04-26T10:25:21.439Z,786.00
2023-04-26T10:26:21.415Z,972.00
2023-04-26T10:27:24.033Z,838.00
2023-04-26T10:28:21.608Z,810.00
2023-04-26T10:29:21.658Z,799.00
2023-04-26T10:30:21.704Z,684.00
2023-04-26T10:31:21.934Z,565.00
2023-04-26T10:32:21.678Z,624.00
2023-04-26T10:33:21.752Z,593.00
2023-04-26T10:34:22.053Z,610.00
2023-04-26T10:35:21.703Z,619.00
2023-04-26T10:36:21.709Z,624.00
2023-04-26T10:37:21.699Z,631.00
2023-04-26T10:38:21.755Z,702.00
2023-04-26T10:39:22.042Z,643.00
2023-04-26T10:40:21.796Z,591.00
2023-04-26T10:41:21.799Z,638.00
2023-04-26T10:42:22.463Z,961.00
2023-04-26T10:43:22.128Z,1032.00
2023-04-26T10:44:22.086Z,884.00
2023-04-26T10:45:22.030Z,1022.00
2023-04-26T10:46:22.160Z,816.00
2023-04-26T10:47:22.208Z,806.00
2023-04-26T10:48:22.208Z,1133.00
2023-04-26T10:49:24.284Z,1290.00
2023-04-26T10:50:22.259Z,1286.00
2023-04-26T10:51:22.286Z,1179.00
2023-04-26T10:52:22.242Z,1294.00
2023-04-26T10:53:22.217Z,1262.00
2023-04-26T10:54:22.555Z,1319.00
2023-04-26T10:55:23.818Z,1401.00
2023-04-26T10:56:22.216Z,1404.00
2023-04-26T10:57:22.225Z,1408.00
2023-04-26T10:58:22.179Z,1408.00
2023-04-26T10:59:39.901Z,1132.00
2023-04-26T11:00:23.154Z,1336.00
2023-04-26T11:01:22.176Z,1274.00
2023-04-26T11:02:22.175Z,1010.00
2023-04-26T11:03:22.290Z,1145.00
2023-04-26T11:04:22.216Z,1050.00
2023-04-26T11:05:24.153Z,1115.00
2023-04-26T11:06:22.143Z,1128.00
2023-04-26T11:07:22.134Z,1257.00
2023-04-26T11:08:22.142Z,1248.00
2023-04-26T11:09:22.131Z,1253.00
2023-04-26T11:10:22.139Z,1265.00
2023-04-26T11:11:22.093Z,1200.00
2023-04-26T11:12:22.120Z,1251.00
2023-04-26T11:13:22.123Z,1170.00
2023-04-26T11:14:22.535Z,1113.00
2023-04-26T11:15:22.180Z,1069.00
2023-04-26T11:16:22.113Z,1030.00
2023-04-26T11:17:22.166Z,1000.00
2023-04-26T11:18:22.081Z,1071.00
2023-04-26T11:19:22.030Z,1146.00
2023-04-26T11:20:22.050Z,1135.00
2023-04-26T11:21:22.038Z,1194.00
2023-04-26T11:22:22.014Z,1181.00
2023-04-26T11:23:22.053Z,994.00
2023-04-26T11:24:22.075Z,1232.00
2023-04-26T11:25:22.020Z,1177.00
2023-04-26T11:26:22.037Z,1008.00
2023-04-26T11:27:21.984Z,1058.00
2023-04-26T11:28:21.993Z,1108.00
2023-04-26T11:29:22.133Z,1211.00
2023-04-26T11:30:22.000Z,1237.00
2023-04-26T11:31:22.079Z,1307.00
2023-04-26T11:32:22.066Z,1365.00
2023-04-26T11:33:21.981Z,1368.00
2023-04-26T11:34:22.002Z,1429.00
2023-04-26T11:35:22.085Z,1438.00
2023-04-26T11:36:21.947Z,1475.00
2023-04-26T11:37:21.955Z,1544.00
2023-04-26T11:38:22.017Z,1571.00
2023-04-26T11:39:21.927Z,1634.00
2023-04-26T11:40:21.972Z,1666.00
2023-04-26T11:41:21.906Z,1706.00
2023-04-26T11:42:21.923Z,1752.00
2023-04-26T11:43:21.957Z,1764.00
2023-04-26T11:44:21.913Z,1788.00
2023-04-26T11:45:21.886Z,1838.00
2023-04-26T11:46:21.963Z,1834.00
2023-04-26T11:47:21.930Z,1857.00
2023-04-26T11:48:21.952Z,1909.00
2023-04-26T11:49:21.883Z,1942.00
2023-04-26T11:50:22.092Z,1953.00
2023-04-26T11:51:21.858Z,1982.00
2023-04-26T11:52:21.832Z,1997.00
2023-04-26T11:53:21.846Z,2021.00
2023-04-26T11:54:21.865Z,2045.00
2023-04-26T11:55:21.849Z,2047.00
2023-04-26T11:56:21.863Z,2047.00
2023-04-26T11:57:21.829Z,2082.00
2023-04-26T11:58:21.842Z,2116.00
2023-04-26T11:59:21.790Z,2134.00
2023-04-26T12:00:21.842Z,2114.00
2023-04-26T12:01:21.808Z,2153.00
2023-04-26T12:02:21.933Z,2142.00
2023-04-26T12:03:21.952Z,2156.00
2023-04-26T12:04:21.896Z,2192.00
2023-04-26T12:05:21.905Z,2197.00
2023-04-26T12:06:21.825Z,2214.00
2023-04-26T12:07:21.742Z,2217.00
2023-04-26T12:08:21.762Z,2224.00
2023-04-26T12:09:21.779Z,2231.00
2023-04-26T12:10:21.754Z,2241.00